Arnott, Wisconsin
Current Conditions -  °F | °C
As of 7:55 PM on Saturday 20 Dec 2014 (Local Time) from KSTE Reporting Station
Overcast Overcast  
Wind Chill: 21°   Ceiling: 1100
Heat Index: 28°   Visibility: 7mi
Dew Point: 25°   Wind: 6mph
Humidity: 89%   Direction: 180°S
Pressure: 30.19"   Gusts: NA
Location:  44.5531°N, 89.5186°W
Report Text: KSTE 210155Z AUTO 18005KT 7SM BKN011 OVC017 M02/M04 A3019 RMK AO2 T10251041
Loading
Personal Weather Stations






























Interactive Weather Map New forecast layout! Learn more

10-Day Weather Forecast

Advertisements
Track Severe Weather on mobile